sensor_id;sensor_type;location;lat;lon;timestamp;P1;durP1;ratioP1;P2;durP2;ratioP2
23802;SDS011;12082;51.786;6.018;2024-03-07T00:02:10;206.50;;;53.60;;
23802;SDS011;12082;51.786;6.018;2024-03-07T00:04:36;208.20;;;53.33;;
23802;SDS011;12082;51.786;6.018;2024-03-07T00:07:02;189.97;;;51.10;;
23802;SDS011;12082;51.786;6.018;2024-03-07T00:09:31;161.20;;;48.87;;
23802;SDS011;12082;51.786;6.018;2024-03-07T00:11:57;159.63;;;49.67;;
23802;SDS011;12082;51.786;6.018;2024-03-07T00:14:23;179.13;;;52.07;;
23802;SDS011;12082;51.786;6.018;2024-03-07T00:16:55;152.97;;;45.87;;
23802;SDS011;12082;51.786;6.018;2024-03-07T00:19:21;166.80;;;50.80;;
23802;SDS011;12082;51.786;6.018;2024-03-07T00:21:49;185.30;;;51.47;;
23802;SDS011;12082;51.786;6.018;2024-03-07T00:24:15;162.40;;;47.53;;
23802;SDS011;12082;51.786;6.018;2024-03-07T00:26:41;164.77;;;50.40;;
23802;SDS011;12082;51.786;6.018;2024-03-07T00:29:07;175.47;;;50.57;;
23802;SDS011;12082;51.786;6.018;2024-03-07T00:31:33;153.07;;;47.30;;
23802;SDS011;12082;51.786;6.018;2024-03-07T00:33:59;150.03;;;45.23;;
23802;SDS011;12082;51.786;6.018;2024-03-07T00:36:25;129.30;;;43.97;;
23802;SDS011;12082;51.786;6.018;2024-03-07T00:38:51;132.27;;;41.17;;
23802;SDS011;12082;51.786;6.018;2024-03-07T00:41:18;135.13;;;43.63;;
23802;SDS011;12082;51.786;6.018;2024-03-07T00:43:44;125.93;;;43.70;;
23802;SDS011;12082;51.786;6.018;2024-03-07T00:46:10;119.10;;;40.17;;
23802;SDS011;12082;51.786;6.018;2024-03-07T00:48:37;160.87;;;43.23;;
23802;SDS011;12082;51.786;6.018;2024-03-07T00:51:03;134.13;;;44.00;;
23802;SDS011;12082;51.786;6.018;2024-03-07T00:53:29;126.23;;;43.30;;
23802;SDS011;12082;51.786;6.018;2024-03-07T00:55:56;144.90;;;43.40;;
23802;SDS011;12082;51.786;6.018;2024-03-07T00:58:22;132.97;;;42.30;;
23802;SDS011;12082;51.786;6.018;2024-03-07T01:00:48;162.57;;;48.70;;
23802;SDS011;12082;51.786;6.018;2024-03-07T01:03:14;158.40;;;42.87;;
23802;SDS011;12082;51.786;6.018;2024-03-07T01:05:42;126.43;;;43.00;;
23802;SDS011;12082;51.786;6.018;2024-03-07T01:08:08;155.03;;;47.17;;
23802;SDS011;12082;51.786;6.018;2024-03-07T01:10:34;150.93;;;46.27;;
23802;SDS011;12082;51.786;6.018;2024-03-07T01:13:00;142.00;;;43.13;;
23802;SDS011;12082;51.786;6.018;2024-03-07T01:15:27;155.60;;;46.67;;
23802;SDS011;12082;51.786;6.018;2024-03-07T01:17:53;232.73;;;49.80;;
23802;SDS011;12082;51.786;6.018;2024-03-07T01:20:21;448.60;;;65.40;;
23802;SDS011;12082;51.786;6.018;2024-03-07T01:22:50;185.03;;;51.10;;
23802;SDS011;12082;51.786;6.018;2024-03-07T01:25:16;170.53;;;50.20;;
23802;SDS011;12082;51.786;6.018;2024-03-07T01:27:42;186.57;;;51.40;;
23802;SDS011;12082;51.786;6.018;2024-03-07T01:30:09;176.47;;;51.03;;
23802;SDS011;12082;51.786;6.018;2024-03-07T01:32:35;169.27;;;51.37;;
23802;SDS011;12082;51.786;6.018;2024-03-07T01:35:01;165.57;;;52.47;;
23802;SDS011;12082;51.786;6.018;2024-03-07T01:37:27;171.70;;;51.13;;
23802;SDS011;12082;51.786;6.018;2024-03-07T01:39:53;180.90;;;51.53;;
23802;SDS011;12082;51.786;6.018;2024-03-07T01:42:19;182.70;;;49.93;;
23802;SDS011;12082;51.786;6.018;2024-03-07T01:44:46;153.77;;;50.00;;
23802;SDS011;12082;51.786;6.018;2024-03-07T01:47:12;158.13;;;47.67;;
23802;SDS011;12082;51.786;6.018;2024-03-07T01:49:39;177.97;;;50.57;;
23802;SDS011;12082;51.786;6.018;2024-03-07T01:52:05;258.93;;;51.13;;
23802;SDS011;12082;51.786;6.018;2024-03-07T01:54:31;447.53;;;58.80;;
23802;SDS011;12082;51.786;6.018;2024-03-07T01:56:57;141.43;;;45.43;;
23802;SDS011;12082;51.786;6.018;2024-03-07T01:59:24;130.40;;;38.13;;
23802;SDS011;12082;51.786;6.018;2024-03-07T02:01:51;143.57;;;45.30;;
23802;SDS011;12082;51.786;6.018;2024-03-07T02:04:18;248.03;;;45.33;;
23802;SDS011;12082;51.786;6.018;2024-03-07T02:06:44;159.17;;;46.30;;
23802;SDS011;12082;51.786;6.018;2024-03-07T02:09:10;132.23;;;44.23;;
23802;SDS011;12082;51.786;6.018;2024-03-07T02:11:36;161.30;;;46.43;;
23802;SDS011;12082;51.786;6.018;2024-03-07T02:14:02;144.80;;;46.53;;
23802;SDS011;12082;51.786;6.018;2024-03-07T02:16:28;138.27;;;42.67;;
23802;SDS011;12082;51.786;6.018;2024-03-07T02:18:54;143.67;;;43.33;;
23802;SDS011;12082;51.786;6.018;2024-03-07T02:21:20;139.63;;;42.17;;
23802;SDS011;12082;51.786;6.018;2024-03-07T02:23:48;184.00;;;47.93;;
23802;SDS011;12082;51.786;6.018;2024-03-07T02:26:14;127.80;;;39.60;;
23802;SDS011;12082;51.786;6.018;2024-03-07T02:28:40;160.43;;;45.57;;
23802;SDS011;12082;51.786;6.018;2024-03-07T02:31:06;155.77;;;42.23;;
23802;SDS011;12082;51.786;6.018;2024-03-07T02:33:31;142.37;;;43.53;;
23802;SDS011;12082;51.786;6.018;2024-03-07T02:35:57;148.80;;;45.57;;
23802;SDS011;12082;51.786;6.018;2024-03-07T02:38:23;135.23;;;44.13;;
23802;SDS011;12082;51.786;6.018;2024-03-07T02:40:49;180.77;;;46.53;;
23802;SDS011;12082;51.786;6.018;2024-03-07T02:43:16;168.13;;;50.80;;
23802;SDS011;12082;51.786;6.018;2024-03-07T02:45:43;173.40;;;49.23;;
23802;SDS011;12082;51.786;6.018;2024-03-07T02:48:09;181.07;;;52.13;;
23802;SDS011;12082;51.786;6.018;2024-03-07T02:50:37;186.90;;;55.20;;
23802;SDS011;12082;51.786;6.018;2024-03-07T02:53:04;190.97;;;55.73;;
23802;SDS011;12082;51.786;6.018;2024-03-07T02:55:31;201.83;;;54.20;;
23802;SDS011;12082;51.786;6.018;2024-03-07T02:57:57;199.00;;;56.77;;
23802;SDS011;12082;51.786;6.018;2024-03-07T03:00:24;203.23;;;58.33;;
23802;SDS011;12082;51.786;6.018;2024-03-07T03:02:54;198.87;;;56.77;;
23802;SDS011;12082;51.786;6.018;2024-03-07T03:05:20;199.80;;;55.73;;
23802;SDS011;12082;51.786;6.018;2024-03-07T03:07:47;216.23;;;60.67;;
23802;SDS011;12082;51.786;6.018;2024-03-07T03:10:20;228.27;;;63.40;;
23802;SDS011;12082;51.786;6.018;2024-03-07T03:12:48;207.33;;;60.53;;
23802;SDS011;12082;51.786;6.018;2024-03-07T03:15:14;207.53;;;62.37;;
23802;SDS011;12082;51.786;6.018;2024-03-07T03:17:40;197.47;;;59.03;;
23802;SDS011;12082;51.786;6.018;2024-03-07T03:20:06;227.20;;;60.57;;
23802;SDS011;12082;51.786;6.018;2024-03-07T03:22:40;203.57;;;58.97;;
23802;SDS011;12082;51.786;6.018;2024-03-07T03:25:09;177.07;;;50.27;;
23802;SDS011;12082;51.786;6.018;2024-03-07T03:27:36;212.53;;;46.70;;
23802;SDS011;12082;51.786;6.018;2024-03-07T03:30:02;228.37;;;51.70;;
23802;SDS011;12082;51.786;6.018;2024-03-07T03:32:29;230.27;;;50.53;;
23802;SDS011;12082;51.786;6.018;2024-03-07T03:34:55;231.33;;;50.77;;
23802;SDS011;12082;51.786;6.018;2024-03-07T03:37:21;212.00;;;54.03;;
23802;SDS011;12082;51.786;6.018;2024-03-07T03:39:47;188.93;;;52.03;;
23802;SDS011;12082;51.786;6.018;2024-03-07T03:42:14;153.17;;;50.20;;
23802;SDS011;12082;51.786;6.018;2024-03-07T03:44:40;183.83;;;54.47;;
23802;SDS011;12082;51.786;6.018;2024-03-07T03:47:06;192.73;;;54.63;;
23802;SDS011;12082;51.786;6.018;2024-03-07T03:49:32;176.10;;;50.63;;
23802;SDS011;12082;51.786;6.018;2024-03-07T03:51:58;210.50;;;59.17;;
23802;SDS011;12082;51.786;6.018;2024-03-07T03:54:24;236.87;;;58.80;;
23802;SDS011;12082;51.786;6.018;2024-03-07T03:56:50;205.93;;;54.20;;
23802;SDS011;12082;51.786;6.018;2024-03-07T03:59:16;213.63;;;55.33;;
23802;SDS011;12082;51.786;6.018;2024-03-07T04:01:43;179.13;;;52.90;;
23802;SDS011;12082;51.786;6.018;2024-03-07T04:04:10;218.00;;;60.93;;
23802;SDS011;12082;51.786;6.018;2024-03-07T04:06:36;192.73;;;57.30;;
23802;SDS011;12082;51.786;6.018;2024-03-07T04:09:02;205.83;;;61.40;;
23802;SDS011;12082;51.786;6.018;2024-03-07T04:11:29;259.13;;;62.07;;
23802;SDS011;12082;51.786;6.018;2024-03-07T04:13:55;211.30;;;56.20;;
23802;SDS011;12082;51.786;6.018;2024-03-07T04:16:21;210.70;;;58.90;;
23802;SDS011;12082;51.786;6.018;2024-03-07T04:18:48;189.93;;;54.77;;
23802;SDS011;12082;51.786;6.018;2024-03-07T04:21:14;202.43;;;52.93;;
23802;SDS011;12082;51.786;6.018;2024-03-07T04:23:40;212.30;;;60.50;;
23802;SDS011;12082;51.786;6.018;2024-03-07T04:26:06;234.43;;;60.50;;
23802;SDS011;12082;51.786;6.018;2024-03-07T04:28:33;227.07;;;62.90;;
23802;SDS011;12082;51.786;6.018;2024-03-07T04:30:59;266.23;;;66.97;;
23802;SDS011;12082;51.786;6.018;2024-03-07T04:33:25;246.37;;;69.17;;
23802;SDS011;12082;51.786;6.018;2024-03-07T04:35:51;265.77;;;70.23;;
23802;SDS011;12082;51.786;6.018;2024-03-07T04:38:17;248.73;;;69.40;;
23802;SDS011;12082;51.786;6.018;2024-03-07T04:40:43;276.40;;;72.63;;
23802;SDS011;12082;51.786;6.018;2024-03-07T04:43:09;287.67;;;73.67;;
23802;SDS011;12082;51.786;6.018;2024-03-07T04:45:36;302.20;;;75.93;;
23802;SDS011;12082;51.786;6.018;2024-03-07T04:48:02;269.33;;;71.13;;
23802;SDS011;12082;51.786;6.018;2024-03-07T04:50:28;283.23;;;75.37;;
23802;SDS011;12082;51.786;6.018;2024-03-07T04:52:54;322.17;;;76.20;;
23802;SDS011;12082;51.786;6.018;2024-03-07T04:55:20;245.10;;;73.17;;
23802;SDS011;12082;51.786;6.018;2024-03-07T04:57:46;261.97;;;72.17;;
23802;SDS011;12082;51.786;6.018;2024-03-07T05:00:12;281.47;;;75.80;;
23802;SDS011;12082;51.786;6.018;2024-03-07T05:02:42;308.97;;;74.80;;
23802;SDS011;12082;51.786;6.018;2024-03-07T05:05:08;258.60;;;73.93;;
23802;SDS011;12082;51.786;6.018;2024-03-07T05:07:34;279.30;;;71.93;;
23802;SDS011;12082;51.786;6.018;2024-03-07T05:10:01;291.37;;;73.87;;
23802;SDS011;12082;51.786;6.018;2024-03-07T05:12:27;290.20;;;78.47;;
23802;SDS011;12082;51.786;6.018;2024-03-07T05:14:53;275.50;;;72.20;;
23802;SDS011;12082;51.786;6.018;2024-03-07T05:17:19;255.80;;;67.00;;
23802;SDS011;12082;51.786;6.018;2024-03-07T05:19:47;251.63;;;68.00;;
23802;SDS011;12082;51.786;6.018;2024-03-07T05:22:14;268.40;;;74.53;;
23802;SDS011;12082;51.786;6.018;2024-03-07T05:24:43;270.20;;;72.87;;
23802;SDS011;12082;51.786;6.018;2024-03-07T05:27:09;242.10;;;66.97;;
23802;SDS011;12082;51.786;6.018;2024-03-07T05:29:38;249.87;;;70.23;;
23802;SDS011;12082;51.786;6.018;2024-03-07T05:32:19;259.13;;;72.33;;
23802;SDS011;12082;51.786;6.018;2024-03-07T05:34:46;241.73;;;67.07;;
23802;SDS011;12082;51.786;6.018;2024-03-07T05:37:12;251.53;;;68.73;;
23802;SDS011;12082;51.786;6.018;2024-03-07T05:39:38;252.33;;;68.83;;
23802;SDS011;12082;51.786;6.018;2024-03-07T05:42:04;241.23;;;68.30;;
23802;SDS011;12082;51.786;6.018;2024-03-07T05:44:32;239.50;;;68.53;;
23802;SDS011;12082;51.786;6.018;2024-03-07T05:46:58;253.47;;;68.13;;
23802;SDS011;12082;51.786;6.018;2024-03-07T05:49:24;252.00;;;68.10;;
23802;SDS011;12082;51.786;6.018;2024-03-07T05:51:50;270.93;;;70.43;;
23802;SDS011;12082;51.786;6.018;2024-03-07T05:54:16;279.73;;;69.43;;
23802;SDS011;12082;51.786;6.018;2024-03-07T05:56:42;281.70;;;72.63;;
23802;SDS011;12082;51.786;6.018;2024-03-07T05:59:08;248.53;;;68.00;;
23802;SDS011;12082;51.786;6.018;2024-03-07T06:01:34;231.67;;;68.00;;
23802;SDS011;12082;51.786;6.018;2024-03-07T06:04:01;239.90;;;66.13;;
23802;SDS011;12082;51.786;6.018;2024-03-07T06:06:28;269.83;;;65.83;;
23802;SDS011;12082;51.786;6.018;2024-03-07T06:08:57;242.77;;;66.53;;
23802;SDS011;12082;51.786;6.018;2024-03-07T06:11:23;235.73;;;63.13;;
23802;SDS011;12082;51.786;6.018;2024-03-07T06:13:49;241.60;;;66.00;;
23802;SDS011;12082;51.786;6.018;2024-03-07T06:16:15;267.13;;;69.23;;
23802;SDS011;12082;51.786;6.018;2024-03-07T06:18:41;264.20;;;70.67;;
23802;SDS011;12082;51.786;6.018;2024-03-07T06:21:07;245.27;;;68.27;;
23802;SDS011;12082;51.786;6.018;2024-03-07T06:23:33;247.07;;;69.07;;
23802;SDS011;12082;51.786;6.018;2024-03-07T06:25:59;233.27;;;64.73;;
23802;SDS011;12082;51.786;6.018;2024-03-07T06:28:26;235.27;;;62.30;;
23802;SDS011;12082;51.786;6.018;2024-03-07T06:30:55;242.57;;;64.70;;
23802;SDS011;12082;51.786;6.018;2024-03-07T06:33:21;231.00;;;59.87;;
23802;SDS011;12082;51.786;6.018;2024-03-07T06:35:47;216.90;;;56.77;;
23802;SDS011;12082;51.786;6.018;2024-03-07T06:38:13;213.33;;;60.47;;
23802;SDS011;12082;51.786;6.018;2024-03-07T06:40:40;228.23;;;62.90;;
23802;SDS011;12082;51.786;6.018;2024-03-07T06:43:09;194.70;;;59.13;;
23802;SDS011;12082;51.786;6.018;2024-03-07T06:45:36;225.10;;;61.90;;
23802;SDS011;12082;51.786;6.018;2024-03-07T06:48:05;204.80;;;59.53;;
23802;SDS011;12082;51.786;6.018;2024-03-07T06:50:33;226.93;;;64.70;;
23802;SDS011;12082;51.786;6.018;2024-03-07T06:52:59;215.90;;;61.97;;
23802;SDS011;12082;51.786;6.018;2024-03-07T06:55:26;252.00;;;67.67;;
23802;SDS011;12082;51.786;6.018;2024-03-07T06:57:52;226.20;;;66.63;;
23802;SDS011;12082;51.786;6.018;2024-03-07T07:00:19;283.43;;;73.17;;
23802;SDS011;12082;51.786;6.018;2024-03-07T07:02:46;274.37;;;71.40;;
23802;SDS011;12082;51.786;6.018;2024-03-07T07:05:12;295.67;;;77.87;;
23802;SDS011;12082;51.786;6.018;2024-03-07T07:07:41;268.90;;;75.80;;
23802;SDS011;12082;51.786;6.018;2024-03-07T07:10:07;271.80;;;76.23;;
23802;SDS011;12082;51.786;6.018;2024-03-07T07:12:36;277.13;;;77.93;;
23802;SDS011;12082;51.786;6.018;2024-03-07T07:15:02;307.40;;;82.77;;
23802;SDS011;12082;51.786;6.018;2024-03-07T07:17:29;290.30;;;81.07;;
23802;SDS011;12082;51.786;6.018;2024-03-07T07:19:56;287.37;;;82.10;;
23802;SDS011;12082;51.786;6.018;2024-03-07T07:22:23;280.03;;;80.93;;
23802;SDS011;12082;51.786;6.018;2024-03-07T07:24:49;256.43;;;79.83;;
23802;SDS011;12082;51.786;6.018;2024-03-07T07:27:15;269.00;;;80.57;;
23802;SDS011;12082;51.786;6.018;2024-03-07T07:29:41;275.10;;;80.53;;
23802;SDS011;12082;51.786;6.018;2024-03-07T07:32:07;279.33;;;78.97;;
23802;SDS011;12082;51.786;6.018;2024-03-07T07:34:37;254.87;;;78.03;;
23802;SDS011;12082;51.786;6.018;2024-03-07T07:37:03;212.30;;;74.23;;
23802;SDS011;12082;51.786;6.018;2024-03-07T07:39:29;247.73;;;74.13;;
23802;SDS011;12082;51.786;6.018;2024-03-07T07:41:56;231.37;;;76.87;;
23802;SDS011;12082;51.786;6.018;2024-03-07T07:44:22;200.90;;;71.20;;
23802;SDS011;12082;51.786;6.018;2024-03-07T07:46:48;148.93;;;60.57;;
23802;SDS011;12082;51.786;6.018;2024-03-07T07:49:14;113.47;;;51.43;;
23802;SDS011;12082;51.786;6.018;2024-03-07T07:51:41;79.50;;;38.20;;
23802;SDS011;12082;51.786;6.018;2024-03-07T07:54:07;59.50;;;33.33;;
23802;SDS011;12082;51.786;6.018;2024-03-07T07:56:34;54.60;;;30.77;;
23802;SDS011;12082;51.786;6.018;2024-03-07T07:59:00;60.57;;;30.47;;
23802;SDS011;12082;51.786;6.018;2024-03-07T08:01:29;44.47;;;24.93;;
23802;SDS011;12082;51.786;6.018;2024-03-07T08:03:55;35.87;;;23.97;;
23802;SDS011;12082;51.786;6.018;2024-03-07T08:06:23;42.07;;;21.83;;
23802;SDS011;12082;51.786;6.018;2024-03-07T08:08:49;34.47;;;22.63;;
23802;SDS011;12082;51.786;6.018;2024-03-07T08:11:15;33.10;;;19.50;;
23802;SDS011;12082;51.786;6.018;2024-03-07T08:13:41;33.93;;;19.13;;
23802;SDS011;12082;51.786;6.018;2024-03-07T08:16:07;30.90;;;18.03;;
23802;SDS011;12082;51.786;6.018;2024-03-07T08:18:36;33.43;;;19.40;;
23802;SDS011;12082;51.786;6.018;2024-03-07T08:21:03;29.20;;;18.00;;
23802;SDS011;12082;51.786;6.018;2024-03-07T08:23:30;29.23;;;17.27;;
23802;SDS011;12082;51.786;6.018;2024-03-07T08:25:56;27.50;;;17.47;;
23802;SDS011;12082;51.786;6.018;2024-03-07T08:28:23;29.17;;;17.23;;
23802;SDS011;12082;51.786;6.018;2024-03-07T08:30:49;28.50;;;18.87;;
23802;SDS011;12082;51.786;6.018;2024-03-07T08:33:15;30.70;;;17.50;;
23802;SDS011;12082;51.786;6.018;2024-03-07T08:35:41;30.23;;;17.90;;
23802;SDS011;12082;51.786;6.018;2024-03-07T08:38:07;32.00;;;18.60;;
23802;SDS011;12082;51.786;6.018;2024-03-07T08:40:34;32.90;;;19.07;;
23802;SDS011;12082;51.786;6.018;2024-03-07T08:43:01;32.63;;;19.13;;
23802;SDS011;12082;51.786;6.018;2024-03-07T08:45:28;30.57;;;19.03;;
23802;SDS011;12082;51.786;6.018;2024-03-07T08:47:55;28.77;;;17.63;;
23802;SDS011;12082;51.786;6.018;2024-03-07T08:50:21;34.57;;;19.13;;
23802;SDS011;12082;51.786;6.018;2024-03-07T08:52:48;31.27;;;18.60;;
23802;SDS011;12082;51.786;6.018;2024-03-07T08:55:19;29.47;;;18.27;;
23802;SDS011;12082;51.786;6.018;2024-03-07T08:57:45;34.10;;;19.00;;
23802;SDS011;12082;51.786;6.018;2024-03-07T09:00:13;30.67;;;18.23;;
23802;SDS011;12082;51.786;6.018;2024-03-07T09:02:47;26.57;;;18.03;;
23802;SDS011;12082;51.786;6.018;2024-03-07T09:05:15;29.83;;;18.43;;
23802;SDS011;12082;51.786;6.018;2024-03-07T09:07:41;24.80;;;17.20;;
23802;SDS011;12082;51.786;6.018;2024-03-07T09:10:07;27.67;;;17.73;;
23802;SDS011;12082;51.786;6.018;2024-03-07T09:12:34;32.80;;;17.83;;
23802;SDS011;12082;51.786;6.018;2024-03-07T09:15:01;30.03;;;17.67;;
23802;SDS011;12082;51.786;6.018;2024-03-07T09:17:28;32.93;;;19.40;;
23802;SDS011;12082;51.786;6.018;2024-03-07T09:19:54;31.57;;;19.50;;
23802;SDS011;12082;51.786;6.018;2024-03-07T09:22:20;27.30;;;16.87;;
23802;SDS011;12082;51.786;6.018;2024-03-07T09:24:46;30.40;;;18.27;;
23802;SDS011;12082;51.786;6.018;2024-03-07T09:27:12;29.60;;;17.57;;
23802;SDS011;12082;51.786;6.018;2024-03-07T09:29:40;26.53;;;16.77;;
23802;SDS011;12082;51.786;6.018;2024-03-07T09:32:06;28.47;;;18.13;;
23802;SDS011;12082;51.786;6.018;2024-03-07T09:34:35;28.97;;;18.40;;
23802;SDS011;12082;51.786;6.018;2024-03-07T09:37:02;29.50;;;18.57;;
23802;SDS011;12082;51.786;6.018;2024-03-07T09:39:28;24.90;;;16.60;;
23802;SDS011;12082;51.786;6.018;2024-03-07T09:41:56;26.27;;;17.03;;
23802;SDS011;12082;51.786;6.018;2024-03-07T09:44:23;26.03;;;16.73;;
23802;SDS011;12082;51.786;6.018;2024-03-07T09:46:51;25.93;;;17.50;;
23802;SDS011;12082;51.786;6.018;2024-03-07T09:49:18;26.97;;;17.47;;
23802;SDS011;12082;51.786;6.018;2024-03-07T09:51:47;28.50;;;16.73;;
23802;SDS011;12082;51.786;6.018;2024-03-07T09:54:20;25.20;;;15.67;;
23802;SDS011;12082;51.786;6.018;2024-03-07T09:56:49;25.67;;;16.23;;
23802;SDS011;12082;51.786;6.018;2024-03-07T09:59:15;27.60;;;16.40;;
23802;SDS011;12082;51.786;6.018;2024-03-07T10:01:45;26.97;;;15.73;;
23802;SDS011;12082;51.786;6.018;2024-03-07T10:04:13;28.97;;;15.90;;
23802;SDS011;12082;51.786;6.018;2024-03-07T10:06:40;22.00;;;15.50;;
23802;SDS011;12082;51.786;6.018;2024-03-07T10:09:09;28.77;;;15.80;;
23802;SDS011;12082;51.786;6.018;2024-03-07T10:11:38;24.93;;;15.43;;
23802;SDS011;12082;51.786;6.018;2024-03-07T10:14:04;24.80;;;15.23;;
23802;SDS011;12082;51.786;6.018;2024-03-07T10:16:32;27.10;;;14.33;;
23802;SDS011;12082;51.786;6.018;2024-03-07T10:18:58;24.50;;;14.80;;
23802;SDS011;12082;51.786;6.018;2024-03-07T10:21:26;28.50;;;15.80;;
23802;SDS011;12082;51.786;6.018;2024-03-07T10:24:08;23.03;;;14.13;;
23802;SDS011;12082;51.786;6.018;2024-03-07T10:26:39;27.57;;;14.43;;
23802;SDS011;12082;51.786;6.018;2024-03-07T10:29:05;26.50;;;14.70;;
23802;SDS011;12082;51.786;6.018;2024-03-07T10:31:32;28.20;;;16.00;;
23802;SDS011;12082;51.786;6.018;2024-03-07T10:34:02;25.57;;;15.13;;
23802;SDS011;12082;51.786;6.018;2024-03-07T10:36:32;23.30;;;14.50;;
23802;SDS011;12082;51.786;6.018;2024-03-07T10:41:36;23.40;;;15.03;;
23802;SDS011;12082;51.786;6.018;2024-03-07T10:44:04;25.17;;;15.23;;
23802;SDS011;12082;51.786;6.018;2024-03-07T10:46:33;24.90;;;15.50;;
23802;SDS011;12082;51.786;6.018;2024-03-07T10:49:01;21.53;;;14.27;;
23802;SDS011;12082;51.786;6.018;2024-03-07T10:51:33;29.50;;;16.37;;
23802;SDS011;12082;51.786;6.018;2024-03-07T10:54:07;25.37;;;14.43;;
23802;SDS011;12082;51.786;6.018;2024-03-07T10:59:21;34.27;;;16.47;;
23802;SDS011;12082;51.786;6.018;2024-03-07T11:04:33;24.70;;;15.20;;
23802;SDS011;12082;51.786;6.018;2024-03-07T11:06:59;24.10;;;14.00;;
23802;SDS011;12082;51.786;6.018;2024-03-07T11:09:26;24.33;;;15.43;;
23802;SDS011;12082;51.786;6.018;2024-03-07T11:11:59;29.23;;;15.53;;
23802;SDS011;12082;51.786;6.018;2024-03-07T11:14:28;22.70;;;14.30;;
23802;SDS011;12082;51.786;6.018;2024-03-07T11:16:55;25.23;;;14.90;;
23802;SDS011;12082;51.786;6.018;2024-03-07T11:19:28;23.80;;;15.07;;
23802;SDS011;12082;51.786;6.018;2024-03-07T11:21:56;26.10;;;15.97;;
23802;SDS011;12082;51.786;6.018;2024-03-07T11:26:51;28.70;;;14.10;;
23802;SDS011;12082;51.786;6.018;2024-03-07T11:32:06;23.10;;;14.07;;
23802;SDS011;12082;51.786;6.018;2024-03-07T11:34:32;22.17;;;13.87;;
23802;SDS011;12082;51.786;6.018;2024-03-07T11:37:03;24.40;;;15.13;;
23802;SDS011;12082;51.786;6.018;2024-03-07T11:39:39;24.10;;;14.03;;
23802;SDS011;12082;51.786;6.018;2024-03-07T11:42:06;24.50;;;13.67;;
23802;SDS011;12082;51.786;6.018;2024-03-07T11:44:32;23.10;;;14.40;;
23802;SDS011;12082;51.786;6.018;2024-03-07T11:47:00;25.60;;;14.23;;
23802;SDS011;12082;51.786;6.018;2024-03-07T11:49:33;26.40;;;14.80;;
23802;SDS011;12082;51.786;6.018;2024-03-07T11:52:01;22.23;;;14.33;;
23802;SDS011;12082;51.786;6.018;2024-03-07T11:54:30;22.13;;;15.00;;
23802;SDS011;12082;51.786;6.018;2024-03-07T11:56:56;23.63;;;15.37;;
23802;SDS011;12082;51.786;6.018;2024-03-07T11:59:22;23.83;;;13.90;;
23802;SDS011;12082;51.786;6.018;2024-03-07T12:01:49;25.00;;;14.87;;
23802;SDS011;12082;51.786;6.018;2024-03-07T12:04:15;24.53;;;14.80;;
23802;SDS011;12082;51.786;6.018;2024-03-07T12:06:49;20.83;;;13.17;;
23802;SDS011;12082;51.786;6.018;2024-03-07T12:09:15;22.73;;;14.57;;
23802;SDS011;12082;51.786;6.018;2024-03-07T12:11:49;20.53;;;12.70;;
23802;SDS011;12082;51.786;6.018;2024-03-07T12:14:18;22.53;;;13.33;;
23802;SDS011;12082;51.786;6.018;2024-03-07T12:16:44;23.03;;;14.27;;
23802;SDS011;12082;51.786;6.018;2024-03-07T12:19:10;23.80;;;12.83;;
23802;SDS011;12082;51.786;6.018;2024-03-07T12:21:37;21.90;;;13.63;;
23802;SDS011;12082;51.786;6.018;2024-03-07T12:24:13;19.87;;;13.53;;
23802;SDS011;12082;51.786;6.018;2024-03-07T12:26:40;21.80;;;13.43;;
23802;SDS011;12082;51.786;6.018;2024-03-07T12:29:10;22.37;;;14.10;;
23802;SDS011;12082;51.786;6.018;2024-03-07T12:31:40;22.37;;;14.33;;
23802;SDS011;12082;51.786;6.018;2024-03-07T12:34:06;24.90;;;14.17;;
23802;SDS011;12082;51.786;6.018;2024-03-07T12:36:34;20.50;;;12.83;;
23802;SDS011;12082;51.786;6.018;2024-03-07T12:39:10;19.83;;;13.13;;
23802;SDS011;12082;51.786;6.018;2024-03-07T12:41:49;21.17;;;12.67;;
23802;SDS011;12082;51.786;6.018;2024-03-07T12:44:19;20.23;;;12.80;;
23802;SDS011;12082;51.786;6.018;2024-03-07T12:46:48;21.23;;;13.57;;
23802;SDS011;12082;51.786;6.018;2024-03-07T12:49:14;22.83;;;13.23;;
23802;SDS011;12082;51.786;6.018;2024-03-07T12:51:41;24.93;;;13.50;;
23802;SDS011;12082;51.786;6.018;2024-03-07T12:54:07;20.90;;;13.40;;
23802;SDS011;12082;51.786;6.018;2024-03-07T12:56:36;21.83;;;14.13;;
23802;SDS011;12082;51.786;6.018;2024-03-07T12:59:03;20.53;;;14.17;;
23802;SDS011;12082;51.786;6.018;2024-03-07T13:01:29;18.93;;;13.10;;
23802;SDS011;12082;51.786;6.018;2024-03-07T13:03:58;26.50;;;13.33;;
23802;SDS011;12082;51.786;6.018;2024-03-07T13:06:24;20.07;;;12.83;;
23802;SDS011;12082;51.786;6.018;2024-03-07T13:08:54;22.70;;;14.07;;
23802;SDS011;12082;51.786;6.018;2024-03-07T13:11:23;23.27;;;13.33;;
23802;SDS011;12082;51.786;6.018;2024-03-07T13:13:52;22.03;;;13.67;;
23802;SDS011;12082;51.786;6.018;2024-03-07T13:16:18;22.17;;;13.00;;
23802;SDS011;12082;51.786;6.018;2024-03-07T13:18:44;22.00;;;12.73;;
23802;SDS011;12082;51.786;6.018;2024-03-07T13:21:11;20.13;;;13.13;;
23802;SDS011;12082;51.786;6.018;2024-03-07T13:23:42;22.03;;;13.40;;
23802;SDS011;12082;51.786;6.018;2024-03-07T13:26:08;24.73;;;13.30;;
23802;SDS011;12082;51.786;6.018;2024-03-07T13:28:41;20.57;;;12.73;;
23802;SDS011;12082;51.786;6.018;2024-03-07T13:31:07;18.27;;;12.27;;
23802;SDS011;12082;51.786;6.018;2024-03-07T13:33:33;23.63;;;13.07;;
23802;SDS011;12082;51.786;6.018;2024-03-07T13:36:01;20.80;;;12.67;;
23802;SDS011;12082;51.786;6.018;2024-03-07T13:38:28;21.27;;;12.67;;
23802;SDS011;12082;51.786;6.018;2024-03-07T13:40:54;22.27;;;13.33;;
23802;SDS011;12082;51.786;6.018;2024-03-07T13:43:22;19.23;;;12.93;;
23802;SDS011;12082;51.786;6.018;2024-03-07T13:45:48;25.67;;;13.03;;
23802;SDS011;12082;51.786;6.018;2024-03-07T13:48:14;18.70;;;13.03;;
23802;SDS011;12082;51.786;6.018;2024-03-07T13:50:42;18.57;;;12.33;;
23802;SDS011;12082;51.786;6.018;2024-03-07T13:53:13;20.73;;;13.40;;
23802;SDS011;12082;51.786;6.018;2024-03-07T13:58:54;18.57;;;13.07;;
23802;SDS011;12082;51.786;6.018;2024-03-07T14:01:32;20.97;;;12.47;;
23802;SDS011;12082;51.786;6.018;2024-03-07T14:06:50;18.90;;;13.13;;
23802;SDS011;12082;51.786;6.018;2024-03-07T14:23:08;18.20;;;12.30;;
23802;SDS011;12082;51.786;6.018;2024-03-07T14:27:49;17.37;;;11.10;;
23802;SDS011;12082;51.786;6.018;2024-03-07T14:30:18;18.27;;;11.87;;
23802;SDS011;12082;51.786;6.018;2024-03-07T14:32:49;21.23;;;12.63;;
23802;SDS011;12082;51.786;6.018;2024-03-07T14:35:31;18.60;;;11.87;;
23802;SDS011;12082;51.786;6.018;2024-03-07T14:38:05;19.70;;;12.20;;
23802;SDS011;12082;51.786;6.018;2024-03-07T14:40:32;17.43;;;11.23;;
23802;SDS011;12082;51.786;6.018;2024-03-07T14:42:58;18.93;;;12.80;;
23802;SDS011;12082;51.786;6.018;2024-03-07T14:45:31;17.83;;;12.40;;
23802;SDS011;12082;51.786;6.018;2024-03-07T14:47:58;17.93;;;11.70;;
23802;SDS011;12082;51.786;6.018;2024-03-07T14:50:26;18.27;;;11.80;;